Neligh, NE

4:49 PM CDT on May 06, 2015 (GMT -0500)
Wayne Municipal | | Change Station
CLOSE
Current Station
Airport
Location: Wayne,
Elevation: 1430 ft
Nearby Weather Stations

Elev 1430 ft 42.24 °N, 96.98 °W | Updated 14 minutes ago

Overcast
Overcast
69 °F
Feels Like 69 °F
N
18
Wind Variable Wind from SSE
Gusts 25 mph

Today
High -- | Low -- °F
--% Chance of Precip.
Yesterday
High -- | Low -- °F
Precip. -- in
6:21 AM 8:36 PM
Waning Gibbous, 92% visible
Pressure 29.74 in
Visibility 10.0 miles
Clouds Mostly Cloudy 1500 ft
Mostly Cloudy 2500 ft
Overcast 2900 ft
Dew Point 64 °F
Humidity 84%
Rainfall 0.17 in
Snow Depth Not available.
UV 2 out of 12
Pollen 7.40 out of 12
Air Quality Not available.
Flu Activity Local Activity
METAR KLCG 062135Z AUTO 16016G22KT 10SM BKN015 BKN025 OVC029 21/18 A2974 RMK AO2 T02050177

More Conditions Fewer Conditions

Pressure 29.74 in
Visibility 10.0 miles
Clouds Mostly Cloudy 1500 ft
Mostly Cloudy 2500 ft
Overcast 2900 ft
Dew Point 64 °F
Humidity 84%
Rainfall 0.17 in
Snow Depth Not available.
UV 2 out of 12
Pollen 7.40 out of 12
Air Quality Not available.
Flu Activity Local Activity
METAR KLCG 062135Z AUTO 16016G22KT 10SM BKN015 BKN025 OVC029 21/18 A2974 RMK AO2 T02050177

More Conditions Fewer Conditions

The Storm Prediction Center has issued an enhanced risk of severe weather for parts of central Texas, Oklahoma, Kansas, and southern Nebraska. Severe thunderstorms are developing throughout the area, producing tornadoes, heavy rain, and large hail. Tornadoes will be possible into the evening.

10-Day Weather Forecast

Almanac

Astronomy

May. 06, 2015 Rise Set
Actual Time
Civil Twilight
Nautical Twilight
Astronomical Twilight
Moon
Length of Visible Light
Length of Day
Tomorrow will be .
, % of the Moon is Illuminated

Today's Extremes

State Highs State Lows

Community

WunderPhotos

Upload Photos

1,819,022 photos uploaded!

WunderBlogs® & News

Nearby

Air Quality

  Air Quality AQ Index Pollutant
Not available.

Snow Depth

Station Depth Elevation

Earthquake Activity

City Distance Mag. Time & Date
Minimum magnitude displayed is 2.5.

Coastal Water Temperatures

Place Temperature

Stations

Nearby Weather Stations

Station Location Temp. Windchill Dew Point Humidity Wind Precip. Elev Updated Type